createdAt,value
2022-12-08T00:00:49.837Z,98
2022-12-08T00:01:57.082Z,109
2022-12-08T00:03:04.290Z,109
2022-12-08T00:04:11.264Z,115
2022-12-08T00:05:18.549Z,105
2022-12-08T00:06:30.958Z,100
2022-12-08T00:07:52.805Z,103
2022-12-08T00:09:05.141Z,94
2022-12-08T00:10:48.281Z,109
2022-12-08T00:11:32.693Z,102
2022-12-08T00:12:39.826Z,97
2022-12-08T00:13:46.984Z,101
2022-12-08T00:14:54.301Z,115
2022-12-08T00:16:01.355Z,104
2022-12-08T00:17:08.540Z,107
2022-12-08T00:18:15.546Z,108
2022-12-08T00:19:22.928Z,107
2022-12-08T00:20:29.748Z,104
2022-12-08T00:21:36.857Z,105
2022-12-08T00:22:44.001Z,109
2022-12-08T00:23:51.185Z,98
2022-12-08T00:24:58.262Z,112
2022-12-08T00:26:05.537Z,96
2022-12-08T00:27:12.684Z,107
2022-12-08T00:28:19.994Z,108
2022-12-08T00:29:27.376Z,113
2022-12-08T00:30:40.895Z,102
2022-12-08T00:31:47.815Z,114
2022-12-08T00:32:54.957Z,112
2022-12-08T00:34:02.061Z,123
2022-12-08T00:35:09.297Z,122
2022-12-08T00:36:16.372Z,119
2022-12-08T00:37:23.701Z,110
2022-12-08T00:38:31.021Z,116
2022-12-08T00:39:38.157Z,121
2022-12-08T00:40:45.424Z,118
2022-12-08T00:41:52.494Z,118
2022-12-08T00:43:04.741Z,118
2022-12-08T00:44:12.844Z,111
2022-12-08T00:45:20.013Z,108
2022-12-08T00:46:27.050Z,109
2022-12-08T00:47:34.309Z,110
2022-12-08T00:48:41.411Z,108
2022-12-08T00:49:48.434Z,114
2022-12-08T00:50:55.607Z,106
2022-12-08T00:52:06.569Z,109
2022-12-08T00:53:13.450Z,112
2022-12-08T00:54:20.529Z,108
2022-12-08T00:55:27.597Z,116
2022-12-08T00:56:34.749Z,113
2022-12-08T00:57:41.796Z,112
2022-12-08T00:58:48.912Z,114
2022-12-08T00:59:56.136Z,106
2022-12-08T01:01:03.434Z,107
2022-12-08T01:02:18.634Z,111
2022-12-08T01:03:25.709Z,109
2022-12-08T01:04:32.617Z,109
2022-12-08T01:05:39.740Z,103
2022-12-08T01:06:46.943Z,107
2022-12-08T01:07:54.097Z,105
2022-12-08T01:09:05.537Z,104
2022-12-08T01:10:12.427Z,106
2022-12-08T01:11:19.531Z,109
2022-12-08T01:12:26.470Z,110
2022-12-08T01:13:33.620Z,111
2022-12-08T01:14:40.841Z,107
2022-12-08T01:15:47.876Z,104
2022-12-08T01:16:55.672Z,104
2022-12-08T01:18:02.717Z,113
2022-12-08T01:19:10.302Z,103
2022-12-08T01:20:17.555Z,106
2022-12-08T01:21:24.477Z,89
2022-12-08T01:22:31.758Z,107
2022-12-08T01:23:38.821Z,107
2022-12-08T01:24:45.969Z,103
2022-12-08T01:25:53.097Z,97
2022-12-08T01:27:00.261Z,96
2022-12-08T01:28:07.552Z,90
2022-12-08T01:29:14.844Z,90
2022-12-08T01:30:21.688Z,95
2022-12-08T01:31:28.812Z,92
2022-12-08T01:32:35.786Z,93
2022-12-08T01:33:43.040Z,94
2022-12-08T01:34:50.234Z,100
2022-12-08T01:35:57.366Z,99
2022-12-08T01:37:07.220Z,103
2022-12-08T01:38:14.116Z,98
2022-12-08T01:39:21.285Z,92
2022-12-08T01:40:28.230Z,94
2022-12-08T01:41:35.394Z,98
2022-12-08T01:42:42.628Z,101
2022-12-08T01:43:49.800Z,93
2022-12-08T01:45:03.085Z,98
2022-12-08T01:46:17.841Z,97
2022-12-08T01:47:24.681Z,99
2022-12-08T01:48:31.853Z,93
2022-12-08T01:49:39.257Z,92
2022-12-08T01:50:46.199Z,102
2022-12-08T01:51:53.236Z,101
2022-12-08T01:53:00.440Z,96
2022-12-08T01:54:10.659Z,93
2022-12-08T01:55:17.905Z,90
2022-12-08T01:56:27.832Z,99
2022-12-08T01:57:40.036Z,82
2022-12-08T01:58:47.185Z,88
2022-12-08T01:59:54.322Z,86
2022-12-08T02:01:04.182Z,94
2022-12-08T02:02:11.365Z,93
2022-12-08T02:03:18.389Z,81
2022-12-08T02:04:25.575Z,84
2022-12-08T02:05:32.755Z,86
2022-12-08T02:06:39.696Z,92
2022-12-08T02:07:46.908Z,79
2022-12-08T02:08:54.009Z,79
2022-12-08T02:10:01.650Z,77
2022-12-08T02:11:08.328Z,84
2022-12-08T02:12:15.409Z,91
2022-12-08T02:13:22.549Z,79
2022-12-08T02:14:29.594Z,78
2022-12-08T02:15:36.801Z,81
2022-12-08T02:16:51.604Z,82
2022-12-08T02:18:03.780Z,89
2022-12-08T02:19:34.525Z,79
2022-12-08T02:20:34.108Z,81
2022-12-08T02:21:51.572Z,83
2022-12-08T02:23:06.354Z,85
2022-12-08T02:24:23.757Z,80
2022-12-08T02:25:30.866Z,86
2022-12-08T02:26:43.940Z,79
2022-12-08T02:27:57.161Z,76
2022-12-08T02:29:12.549Z,80
2022-12-08T02:30:27.684Z,82
2022-12-08T02:31:42.469Z,77
2022-12-08T02:33:00.296Z,83
2022-12-08T02:34:12.520Z,85
2022-12-08T02:35:19.680Z,85
2022-12-08T02:36:34.824Z,85
2022-12-08T02:37:52.237Z,87
2022-12-08T02:39:07.009Z,88
2022-12-08T02:40:19.244Z,77
2022-12-08T02:41:29.335Z,87
2022-12-08T02:42:41.568Z,91
2022-12-08T02:43:48.772Z,78
2022-12-08T02:44:59.041Z,78
2022-12-08T02:46:11.108Z,76
2022-12-08T02:47:20.864Z,88
2022-12-08T02:48:27.936Z,73
2022-12-08T02:49:34.992Z,79
2022-12-08T02:50:42.096Z,77
2022-12-08T02:51:49.170Z,72
2022-12-08T02:52:56.336Z,78
2022-12-08T02:54:03.541Z,80
2022-12-08T02:55:10.849Z,81
2022-12-08T02:56:22.940Z,76
2022-12-08T02:57:34.963Z,74
2022-12-08T02:58:42.100Z,87
2022-12-08T02:59:57.424Z,73
2022-12-08T03:01:09.844Z,80
2022-12-08T03:02:22.014Z,82
2022-12-08T03:03:33.972Z,80
2022-12-08T03:04:48.769Z,82
2022-12-08T03:06:00.984Z,90
2022-12-08T03:07:10.845Z,86
2022-12-08T03:08:24.130Z,74
2022-12-08T03:09:34.064Z,88
2022-12-08T03:10:41.356Z,84
2022-12-08T03:11:53.461Z,78
2022-12-08T03:13:00.640Z,80
2022-12-08T03:14:17.865Z,81
2022-12-08T03:15:24.845Z,71
2022-12-08T03:16:32.146Z,76
2022-12-08T03:17:39.248Z,83
2022-12-08T03:18:46.313Z,81
2022-12-08T03:19:53.442Z,76
2022-12-08T03:21:00.572Z,74
2022-12-08T03:22:07.790Z,76
2022-12-08T03:23:14.892Z,72
2022-12-08T03:24:22.124Z,73
2022-12-08T03:25:29.089Z,70
2022-12-08T03:26:36.211Z,78
2022-12-08T03:27:43.482Z,77
2022-12-08T03:28:50.979Z,70
2022-12-08T03:29:57.704Z,72
2022-12-08T03:31:04.894Z,66
2022-12-08T03:32:11.993Z,67
2022-12-08T03:33:27.589Z,73
2022-12-08T03:34:34.793Z,69
2022-12-08T03:35:42.880Z,76
2022-12-08T03:36:50.152Z,73
2022-12-08T03:37:57.333Z,72
2022-12-08T03:39:09.657Z,65
2022-12-08T03:40:17.433Z,65
2022-12-08T03:41:24.401Z,67
2022-12-08T03:42:31.378Z,64
2022-12-08T03:43:38.501Z,67
2022-12-08T03:44:45.708Z,68
2022-12-08T03:45:53.077Z,69
2022-12-08T03:47:00.212Z,65
2022-12-08T03:48:07.124Z,71
2022-12-08T03:49:14.292Z,63
2022-12-08T03:50:21.460Z,68
2022-12-08T03:51:28.477Z,60
2022-12-08T03:52:35.600Z,74
2022-12-08T03:53:42.730Z,66
2022-12-08T03:54:50.767Z,61
2022-12-08T03:55:58.044Z,70
2022-12-08T03:57:05.185Z,66
2022-12-08T03:58:12.360Z,61
2022-12-08T03:59:19.597Z,60
2022-12-08T04:00:26.668Z,66
2022-12-08T04:01:33.775Z,71
2022-12-08T04:02:40.907Z,59
2022-12-08T04:03:47.941Z,51
2022-12-08T04:04:55.333Z,55
2022-12-08T04:06:02.344Z,66
2022-12-08T04:07:09.712Z,54
2022-12-08T04:08:16.686Z,68
2022-12-08T04:09:23.831Z,65
2022-12-08T04:10:30.734Z,64
2022-12-08T04:11:37.872Z,60
2022-12-08T04:12:46.163Z,54
2022-12-08T04:13:53.268Z,54
2022-12-08T04:15:00.426Z,58
2022-12-08T04:16:07.616Z,57
2022-12-08T04:17:19.779Z,56
2022-12-08T04:18:26.767Z,57
2022-12-08T04:19:33.868Z,55
2022-12-08T04:20:41.091Z,52
2022-12-08T04:21:48.207Z,62
2022-12-08T04:22:55.575Z,53
2022-12-08T04:24:02.529Z,58
2022-12-08T04:25:09.660Z,57
2022-12-08T04:26:16.792Z,57
2022-12-08T04:27:23.987Z,59
2022-12-08T04:28:31.102Z,67
2022-12-08T04:29:38.482Z,61
2022-12-08T04:30:45.660Z,61
2022-12-08T04:31:52.981Z,60
2022-12-08T04:32:59.965Z,60
2022-12-08T04:34:07.191Z,61
2022-12-08T04:35:15.205Z,59
2022-12-08T04:36:22.526Z,53
2022-12-08T04:37:29.467Z,65
2022-12-08T04:38:36.495Z,66
2022-12-08T04:39:43.752Z,72
2022-12-08T04:40:50.851Z,68
2022-12-08T04:41:58.143Z,65
2022-12-08T04:43:05.364Z,68
2022-12-08T04:44:12.548Z,72
2022-12-08T04:45:19.515Z,75
2022-12-08T04:46:26.512Z,83
2022-12-08T04:47:34.097Z,78
2022-12-08T04:48:40.922Z,78
2022-12-08T04:49:48.059Z,67
2022-12-08T04:50:54.999Z,76
2022-12-08T04:52:02.295Z,76
2022-12-08T04:53:09.445Z,68
2022-12-08T04:54:22.029Z,76
2022-12-08T04:55:29.210Z,90
2022-12-08T04:56:36.439Z,81
2022-12-08T04:57:44.122Z,80
2022-12-08T04:58:51.439Z,76
2022-12-08T04:59:58.475Z,85
2022-12-08T05:01:05.521Z,76
2022-12-08T05:02:12.846Z,81
2022-12-08T05:03:25.230Z,93
2022-12-08T05:04:26.802Z,82
2022-12-08T05:05:34.086Z,78
2022-12-08T05:06:42.012Z,79
2022-12-08T05:07:50.121Z,80
2022-12-08T05:08:57.460Z,90
2022-12-08T05:10:05.296Z,90
2022-12-08T05:11:12.422Z,84
2022-12-08T05:12:19.443Z,86
2022-12-08T05:13:26.566Z,85
2022-12-08T05:14:33.555Z,94
2022-12-08T05:15:40.683Z,87
2022-12-08T05:16:48.035Z,98
2022-12-08T05:17:55.164Z,85
2022-12-08T05:19:02.270Z,86
2022-12-08T05:20:09.346Z,93
2022-12-08T05:21:16.543Z,95
2022-12-08T05:22:23.626Z,93
2022-12-08T05:23:30.571Z,96
2022-12-08T05:24:40.313Z,98
2022-12-08T05:25:45.140Z,104
2022-12-08T05:26:52.137Z,93
2022-12-08T05:28:17.921Z,98
2022-12-08T05:29:06.454Z,95
2022-12-08T05:30:13.575Z,100
2022-12-08T05:31:20.805Z,100
2022-12-08T05:32:28.435Z,96
2022-12-08T05:33:35.330Z,91
2022-12-08T05:34:42.466Z,95
2022-12-08T05:35:49.590Z,99
2022-12-08T05:36:56.739Z,94
2022-12-08T05:38:03.946Z,92
2022-12-08T05:39:11.051Z,94
2022-12-08T05:40:18.301Z,104
2022-12-08T05:41:25.398Z,100
2022-12-08T05:42:32.278Z,84
2022-12-08T05:43:39.453Z,92
2022-12-08T05:44:46.566Z,95
2022-12-08T05:45:53.848Z,87
2022-12-08T05:47:01.038Z,102
2022-12-08T05:48:08.010Z,91
2022-12-08T05:49:15.154Z,97
2022-12-08T05:50:22.343Z,96
2022-12-08T05:51:29.422Z,85
2022-12-08T05:52:36.523Z,89
2022-12-08T05:53:43.798Z,90
2022-12-08T05:54:50.907Z,92
2022-12-08T05:55:57.981Z,92
2022-12-08T05:57:05.182Z,91
2022-12-08T05:58:12.395Z,86
2022-12-08T05:59:19.670Z,88
2022-12-08T06:00:27.062Z,93
2022-12-08T06:01:34.205Z,95
2022-12-08T06:02:41.713Z,86
2022-12-08T06:03:48.726Z,101
2022-12-08T06:04:55.621Z,87
2022-12-08T06:06:02.977Z,83
2022-12-08T06:07:14.608Z,87
2022-12-08T06:08:17.601Z,88
2022-12-08T06:09:24.739Z,92
2022-12-08T06:10:31.666Z,78
2022-12-08T06:11:39.294Z,86
2022-12-08T06:12:46.490Z,86
2022-12-08T06:13:53.922Z,88
2022-12-08T06:15:00.930Z,83
2022-12-08T06:16:08.141Z,81
2022-12-08T06:17:15.082Z,85
2022-12-08T06:18:22.271Z,87
2022-12-08T06:19:29.211Z,90
2022-12-08T06:20:36.430Z,80
2022-12-08T06:21:43.742Z,85
2022-12-08T06:22:51.514Z,78
2022-12-08T06:23:58.393Z,88
2022-12-08T06:25:08.530Z,80
2022-12-08T06:26:12.675Z,83
2022-12-08T06:27:19.970Z,87
2022-12-08T06:28:27.135Z,88
2022-12-08T06:29:34.055Z,85
2022-12-08T06:30:41.219Z,79
2022-12-08T06:31:48.719Z,84
2022-12-08T06:32:56.054Z,80
2022-12-08T06:34:03.246Z,79
2022-12-08T06:35:10.342Z,84
2022-12-08T06:36:17.438Z,76
2022-12-08T06:37:24.677Z,88
2022-12-08T06:38:31.645Z,85
2022-12-08T06:39:39.731Z,79
2022-12-08T06:40:47.079Z,82
2022-12-08T06:41:59.199Z,73
2022-12-08T06:43:11.482Z,75
2022-12-08T06:44:18.644Z,70
2022-12-08T06:45:26.181Z,69
2022-12-08T06:46:35.120Z,69
2022-12-08T06:47:41.970Z,66
2022-12-08T06:48:49.174Z,73
2022-12-08T06:49:56.260Z,76
2022-12-08T06:51:04.383Z,72
2022-12-08T06:52:14.743Z,74
2022-12-08T06:53:21.926Z,75
2022-12-08T06:54:28.842Z,67
2022-12-08T06:55:58.635Z,69
2022-12-08T06:56:49.213Z,66
2022-12-08T06:57:57.164Z,65
2022-12-08T06:59:03.653Z,64
2022-12-08T07:00:10.719Z,76
2022-12-08T07:01:18.454Z,66
2022-12-08T07:02:25.630Z,66
2022-12-08T07:03:32.518Z,60
2022-12-08T07:04:39.862Z,68
2022-12-08T07:05:46.948Z,67
2022-12-08T07:06:54.087Z,64
2022-12-08T07:08:01.167Z,62
2022-12-08T07:09:08.754Z,72
2022-12-08T07:10:16.066Z,62
2022-12-08T07:11:23.122Z,57
2022-12-08T07:12:30.394Z,65
2022-12-08T07:13:38.218Z,60
2022-12-08T07:14:45.522Z,66
2022-12-08T07:15:52.569Z,67
2022-12-08T07:16:59.821Z,65
2022-12-08T07:18:07.017Z,58
2022-12-08T07:19:15.107Z,59
2022-12-08T07:20:22.470Z,68
2022-12-08T07:21:29.363Z,64
2022-12-08T07:22:36.515Z,50
2022-12-08T07:23:43.567Z,65
2022-12-08T07:24:50.790Z,54
2022-12-08T07:25:58.322Z,57
2022-12-08T07:27:08.119Z,59
2022-12-08T07:28:15.319Z,59
2022-12-08T07:29:26.156Z,57
2022-12-08T07:30:29.616Z,67
2022-12-08T07:31:36.555Z,58
2022-12-08T07:32:43.726Z,43
2022-12-08T07:33:50.916Z,57
2022-12-08T07:34:58.143Z,62
2022-12-08T07:36:05.352Z,55
2022-12-08T07:37:12.322Z,55
2022-12-08T07:38:20.217Z,57
2022-12-08T07:39:26.646Z,50
2022-12-08T07:40:33.859Z,64
2022-12-08T07:41:40.818Z,57
2022-12-08T07:42:47.939Z,67
2022-12-08T07:43:55.113Z,58
2022-12-08T07:45:02.229Z,56
2022-12-08T07:46:09.470Z,57
2022-12-08T07:47:19.110Z,62
2022-12-08T07:48:26.267Z,54
2022-12-08T07:49:33.394Z,57
2022-12-08T07:50:40.354Z,60
2022-12-08T07:51:47.491Z,60
2022-12-08T07:52:54.601Z,61
2022-12-08T07:54:01.823Z,51
2022-12-08T07:55:09.062Z,59
2022-12-08T07:56:16.295Z,50
2022-12-08T07:57:23.254Z,55
2022-12-08T07:58:33.742Z,50
2022-12-08T07:59:40.946Z,54
2022-12-08T08:00:48.214Z,49
2022-12-08T08:02:13.388Z,49
2022-12-08T08:03:02.537Z,52
2022-12-08T08:04:09.733Z,57
2022-12-08T08:05:16.890Z,49
2022-12-08T08:06:23.928Z,40
2022-12-08T08:07:30.856Z,43
2022-12-08T08:08:38.042Z,38
2022-12-08T08:09:45.242Z,47
2022-12-08T08:10:52.608Z,42
2022-12-08T08:12:22.614Z,51
2022-12-08T08:13:06.808Z,51
2022-12-08T08:14:13.799Z,51
2022-12-08T08:15:20.922Z,39
2022-12-08T08:16:30.998Z,35
2022-12-08T08:17:35.385Z,43
2022-12-08T08:18:42.196Z,40
2022-12-08T08:19:50.694Z,37
2022-12-08T08:21:06.601Z,43
2022-12-08T08:22:06.254Z,37
2022-12-08T08:23:13.503Z,41
2022-12-08T08:24:20.622Z,31
2022-12-08T08:25:27.843Z,38
2022-12-08T08:26:34.803Z,33
2022-12-08T08:27:41.926Z,27
2022-12-08T08:28:49.106Z,37
2022-12-08T08:29:56.198Z,29
2022-12-08T08:31:03.589Z,35
2022-12-08T08:32:10.583Z,28
2022-12-08T08:33:17.618Z,27
2022-12-08T08:34:24.864Z,26
2022-12-08T08:35:31.790Z,35
2022-12-08T08:36:38.982Z,34
2022-12-08T08:37:49.022Z,37
2022-12-08T08:38:53.350Z,26
2022-12-08T08:40:00.388Z,36
2022-12-08T08:41:07.513Z,34
2022-12-08T08:42:14.680Z,25
2022-12-08T08:43:21.843Z,39
2022-12-08T08:44:33.927Z,42
2022-12-08T08:45:40.978Z,38
2022-12-08T08:46:48.203Z,39
2022-12-08T08:47:55.347Z,34
2022-12-08T08:49:02.534Z,30
2022-12-08T08:50:09.720Z,28
2022-12-08T08:51:16.730Z,38
2022-12-08T08:52:24.025Z,35
2022-12-08T08:53:30.962Z,28
2022-12-08T08:54:38.152Z,34
2022-12-08T08:55:45.223Z,32
2022-12-08T08:56:52.367Z,31
2022-12-08T08:57:59.566Z,32
2022-12-08T08:59:06.758Z,25
2022-12-08T09:00:13.935Z,48
2022-12-08T09:01:21.308Z,40
2022-12-08T09:02:29.423Z,40
2022-12-08T09:03:36.634Z,41
2022-12-08T09:04:43.810Z,37
2022-12-08T09:05:51.031Z,35
2022-12-08T09:06:58.176Z,32
2022-12-08T09:08:06.410Z,33
2022-12-08T09:09:13.442Z,33
2022-12-08T09:10:20.755Z,35
2022-12-08T09:11:27.822Z,33
2022-12-08T09:12:34.742Z,33
2022-12-08T09:13:41.871Z,25
2022-12-08T09:14:49.149Z,30
2022-12-08T09:15:56.324Z,35
2022-12-08T09:17:06.778Z,29
2022-12-08T09:18:13.730Z,25
2022-12-08T09:19:20.774Z,29
2022-12-08T09:20:28.008Z,33
2022-12-08T09:21:34.939Z,32
2022-12-08T09:22:42.047Z,30
2022-12-08T09:23:49.495Z,30
2022-12-08T09:24:56.343Z,40
2022-12-08T09:26:03.486Z,33
2022-12-08T09:27:10.678Z,30
2022-12-08T09:28:17.781Z,28
2022-12-08T09:29:24.980Z,32
2022-12-08T09:30:31.947Z,35
2022-12-08T09:31:39.114Z,38
2022-12-08T09:32:46.125Z,37
2022-12-08T09:33:53.344Z,34
2022-12-08T09:35:00.471Z,26
2022-12-08T09:36:07.622Z,31
2022-12-08T09:37:14.786Z,38
2022-12-08T09:38:22.170Z,37
2022-12-08T09:39:29.123Z,37
2022-12-08T09:40:36.083Z,32
2022-12-08T09:41:50.895Z,28
2022-12-08T09:43:03.674Z,29
2022-12-08T09:44:13.932Z,33
2022-12-08T09:45:31.688Z,25
2022-12-08T09:46:38.859Z,34
2022-12-08T09:47:45.838Z,28
2022-12-08T09:49:00.837Z,32
2022-12-08T09:50:08.415Z,37
2022-12-08T09:51:18.150Z,42
2022-12-08T09:52:25.334Z,29
2022-12-08T09:53:35.578Z,36
2022-12-08T09:54:44.504Z,35
2022-12-08T09:55:51.880Z,38
2022-12-08T09:57:04.395Z,33
2022-12-08T09:58:11.679Z,29
2022-12-08T09:59:26.951Z,25
2022-12-08T10:00:36.927Z,26
2022-12-08T10:01:44.117Z,34
2022-12-08T10:02:51.266Z,38
2022-12-08T10:03:58.442Z,33
2022-12-08T10:05:05.642Z,32
2022-12-08T10:06:12.756Z,28
2022-12-08T10:07:30.138Z,35
2022-12-08T10:08:42.821Z,40
2022-12-08T10:09:49.811Z,31
2022-12-08T10:11:07.243Z,33
2022-12-08T10:12:20.410Z,30
2022-12-08T10:13:34.983Z,38
2022-12-08T10:14:42.102Z,39
2022-12-08T10:15:59.634Z,31
2022-12-08T10:17:16.950Z,28
2022-12-08T10:18:23.974Z,37
2022-12-08T10:19:30.942Z,34
2022-12-08T10:20:38.192Z,34
2022-12-08T10:21:45.372Z,35
2022-12-08T10:22:52.478Z,31
2022-12-08T10:23:59.522Z,30
2022-12-08T10:25:06.746Z,38
2022-12-08T10:26:21.493Z,41
2022-12-08T10:27:28.710Z,41
2022-12-08T10:28:41.344Z,37
2022-12-08T10:29:43.238Z,32
2022-12-08T10:30:50.502Z,33
2022-12-08T10:31:57.860Z,33
2022-12-08T10:33:04.795Z,25
2022-12-08T10:34:20.354Z,40
2022-12-08T10:35:27.350Z,25
2022-12-08T10:36:44.856Z,42
2022-12-08T10:37:54.614Z,43
2022-12-08T10:39:01.727Z,34
2022-12-08T10:40:09.020Z,38
2022-12-08T10:41:16.189Z,46
2022-12-08T10:42:23.344Z,34
2022-12-08T10:43:30.300Z,30
2022-12-08T10:44:37.311Z,35
2022-12-08T10:45:44.581Z,27
2022-12-08T10:46:51.687Z,33
2022-12-08T10:47:58.934Z,32
2022-12-08T10:49:06.053Z,32
2022-12-08T10:50:13.076Z,43
2022-12-08T10:51:25.593Z,46
2022-12-08T10:52:32.853Z,47
2022-12-08T10:53:42.622Z,45
2022-12-08T10:54:49.610Z,44
2022-12-08T10:55:56.775Z,38
2022-12-08T10:57:07.009Z,34
2022-12-08T10:58:14.241Z,30
2022-12-08T10:59:26.372Z,40
2022-12-08T11:00:33.500Z,36
2022-12-08T11:01:43.971Z,36
2022-12-08T11:02:50.904Z,52
2022-12-08T11:04:00.494Z,46
2022-12-08T11:05:07.810Z,45
2022-12-08T11:06:14.869Z,55
2022-12-08T11:07:21.906Z,60
2022-12-08T11:08:29.162Z,56
2022-12-08T11:09:36.002Z,56
2022-12-08T11:10:48.237Z,55
2022-12-08T11:11:55.368Z,61
2022-12-08T11:13:07.673Z,53
2022-12-08T11:14:20.046Z,64
2022-12-08T11:15:33.122Z,65
2022-12-08T11:16:40.229Z,65
2022-12-08T11:17:47.313Z,84
2022-12-08T11:18:54.522Z,96
2022-12-08T11:20:01.898Z,98
2022-12-08T11:21:13.963Z,91
2022-12-08T11:22:21.017Z,97
2022-12-08T11:23:30.682Z,92
2022-12-08T11:24:37.978Z,97
2022-12-08T11:25:44.881Z,93
2022-12-08T11:26:51.927Z,94
2022-12-08T11:27:59.065Z,109
2022-12-08T11:29:06.253Z,101
2022-12-08T11:30:16.263Z,103
2022-12-08T11:31:28.276Z,99
2022-12-08T11:32:35.135Z,94
2022-12-08T11:33:42.342Z,96
2022-12-08T11:34:49.460Z,103
2022-12-08T11:35:59.694Z,96
2022-12-08T11:37:09.356Z,96
2022-12-08T11:38:22.754Z,107
2022-12-08T11:39:26.289Z,111
2022-12-08T11:40:33.325Z,100
2022-12-08T11:41:40.390Z,101
2022-12-08T11:42:47.433Z,109
2022-12-08T11:43:57.224Z,104
2022-12-08T11:45:07.768Z,101
2022-12-08T11:46:17.168Z,98
2022-12-08T11:47:26.869Z,107
2022-12-08T11:48:39.470Z,113
2022-12-08T11:49:49.284Z,113
2022-12-08T11:50:56.228Z,124
2022-12-08T11:52:03.464Z,114
2022-12-08T11:53:15.805Z,116
2022-12-08T11:54:33.264Z,115
2022-12-08T11:55:42.799Z,108
2022-12-08T11:56:47.749Z,115
2022-12-08T11:58:00.398Z,120
2022-12-08T11:59:18.709Z,116
2022-12-08T12:00:33.787Z,120
2022-12-08T12:01:42.460Z,107
2022-12-08T12:02:48.405Z,114
2022-12-08T12:03:55.173Z,109
2022-12-08T12:05:10.569Z,123
2022-12-08T12:06:46.777Z,114
2022-12-08T12:07:43.040Z,125
2022-12-08T12:08:55.301Z,110
2022-12-08T12:10:10.516Z,115
2022-12-08T12:11:27.890Z,122
2022-12-08T12:12:48.046Z,113
2022-12-08T12:14:05.444Z,123
2022-12-08T12:15:19.057Z,125
2022-12-08T12:16:31.350Z,115
2022-12-08T12:17:49.671Z,114
2022-12-08T12:18:56.821Z,117
2022-12-08T12:20:05.320Z,115
2022-12-08T12:21:17.349Z,125
2022-12-08T12:22:30.292Z,115
2022-12-08T12:23:37.408Z,117
2022-12-08T12:24:47.231Z,114
2022-12-08T12:25:54.420Z,113
2022-12-08T12:27:04.084Z,119
2022-12-08T12:28:11.249Z,112
2022-12-08T12:29:18.406Z,119
2022-12-08T12:30:25.586Z,121
2022-12-08T12:31:32.501Z,126
2022-12-08T12:32:43.816Z,117
2022-12-08T12:33:50.875Z,117
2022-12-08T12:34:58.148Z,113
2022-12-08T12:36:05.134Z,115
2022-12-08T12:37:12.897Z,120
2022-12-08T12:38:28.366Z,113
2022-12-08T12:39:40.733Z,112
2022-12-08T12:40:55.871Z,114
2022-12-08T12:42:02.655Z,111
2022-12-08T12:43:09.849Z,111
2022-12-08T12:44:17.233Z,108
2022-12-08T12:45:24.289Z,106
2022-12-08T12:46:31.421Z,113
2022-12-08T12:47:40.798Z,117
2022-12-08T12:48:53.772Z,113
2022-12-08T12:50:00.760Z,107
2022-12-08T12:51:11.565Z,113
2022-12-08T12:52:26.841Z,120
2022-12-08T12:53:36.845Z,113
2022-12-08T12:54:43.927Z,116
2022-12-08T12:55:53.676Z,114
2022-12-08T12:57:00.970Z,113
2022-12-08T12:58:07.996Z,116
2022-12-08T12:59:25.260Z,112
2022-12-08T13:00:40.552Z,113
2022-12-08T13:01:47.793Z,114
2022-12-08T13:02:54.967Z,109
2022-12-08T13:04:02.716Z,106
2022-12-08T13:05:12.780Z,108
2022-12-08T13:06:22.893Z,112
2022-12-08T13:07:38.445Z,118
2022-12-08T13:08:53.428Z,116
2022-12-08T13:10:00.460Z,120
2022-12-08T13:11:18.776Z,118
2022-12-08T13:12:26.071Z,115
2022-12-08T13:13:32.919Z,115
2022-12-08T13:14:40.080Z,117
2022-12-08T13:15:49.812Z,127
2022-12-08T13:17:00.066Z,117
2022-12-08T13:18:07.301Z,110
2022-12-08T13:19:19.961Z,115
2022-12-08T13:20:27.021Z,120
2022-12-08T13:21:34.172Z,117
2022-12-08T13:22:42.865Z,126
2022-12-08T13:23:58.115Z,112
2022-12-08T13:25:15.317Z,109
2022-12-08T13:26:32.884Z,114
2022-12-08T13:27:50.423Z,117
2022-12-08T13:28:57.725Z,121
2022-12-08T13:30:09.850Z,120
2022-12-08T13:31:27.251Z,121
2022-12-08T13:33:16.570Z,126
2022-12-08T13:34:00.096Z,118
2022-12-08T13:35:15.485Z,117
2022-12-08T13:36:22.639Z,119
2022-12-08T13:37:29.670Z,115
2022-12-08T13:38:36.563Z,116
2022-12-08T13:39:43.811Z,115
2022-12-08T13:40:50.941Z,128
2022-12-08T13:41:58.269Z,123
2022-12-08T13:43:10.377Z,116
2022-12-08T13:46:26.491Z,110
2022-12-08T13:47:09.656Z,110
2022-12-08T13:48:26.914Z,111
2022-12-08T13:54:42.809Z,114
2022-12-08T13:56:24.597Z,119
2022-12-08T13:56:52.000Z,121
2022-12-08T13:57:10.978Z,119
2022-12-08T13:58:14.544Z,123
2022-12-08T13:59:21.845Z,117
2022-12-08T14:00:34.421Z,112
2022-12-08T14:01:41.577Z,119
2022-12-08T14:02:48.942Z,120
2022-12-08T14:04:30.835Z,129
2022-12-08T14:05:19.725Z,115
2022-12-08T14:06:12.525Z,115
2022-12-08T14:07:23.797Z,118
2022-12-08T14:08:58.231Z,115
2022-12-08T14:09:38.994Z,115
2022-12-08T14:10:46.245Z,118
2022-12-08T14:11:53.442Z,118
2022-12-08T14:13:00.508Z,121
2022-12-08T14:14:08.512Z,129
2022-12-08T14:15:19.748Z,117
2022-12-08T14:16:26.900Z,117
2022-12-08T14:17:38.620Z,115
2022-12-08T14:18:45.902Z,115
2022-12-08T14:19:52.908Z,113
2022-12-08T14:21:20.614Z,111
2022-12-08T14:22:15.916Z,113
2022-12-08T14:23:23.089Z,121
2022-12-08T14:24:30.200Z,110
2022-12-08T14:25:38.603Z,114
2022-12-08T14:26:47.550Z,112
2022-12-08T14:27:57.649Z,113
2022-12-08T14:29:04.837Z,118
2022-12-08T14:30:12.056Z,119
2022-12-08T14:31:24.307Z,118
2022-12-08T14:32:31.325Z,117
2022-12-08T14:33:41.465Z,118
2022-12-08T14:34:48.850Z,116
2022-12-08T14:36:03.778Z,120
2022-12-08T14:37:11.040Z,115
2022-12-08T14:38:19.168Z,115
2022-12-08T14:39:26.633Z,116
2022-12-08T14:40:35.016Z,116
2022-12-08T14:41:42.136Z,118
2022-12-08T14:42:49.126Z,121
2022-12-08T14:44:06.481Z,126
2022-12-08T14:45:24.893Z,117
2022-12-08T14:46:32.099Z,120
2022-12-08T14:47:39.065Z,121
2022-12-08T14:48:46.236Z,124
2022-12-08T14:49:53.312Z,125
2022-12-08T14:51:00.625Z,132
2022-12-08T14:52:07.693Z,121
2022-12-08T14:53:14.908Z,123
2022-12-08T14:54:22.053Z,124
2022-12-08T14:55:29.095Z,119
2022-12-08T14:56:39.112Z,129
2022-12-08T14:57:46.550Z,125
2022-12-08T14:58:54.046Z,121
2022-12-08T15:00:08.672Z,122
2022-12-08T15:01:15.594Z,117
2022-12-08T15:02:23.024Z,121
2022-12-08T15:03:30.412Z,114
2022-12-08T15:04:37.843Z,117
2022-12-08T15:05:49.737Z,111
2022-12-08T15:06:57.224Z,111
2022-12-08T15:08:09.626Z,114
2022-12-08T15:09:16.589Z,108
2022-12-08T15:10:33.112Z,114
2022-12-08T15:11:40.478Z,107
2022-12-08T15:12:47.697Z,113
2022-12-08T15:14:00.035Z,119
2022-12-08T15:15:07.128Z,112
2022-12-08T15:16:14.391Z,112
2022-12-08T15:17:32.059Z,114
2022-12-08T15:18:44.718Z,112
2022-12-08T15:19:51.969Z,117
2022-12-08T15:20:59.403Z,114
2022-12-08T15:22:06.536Z,121
2022-12-08T15:23:16.630Z,122
2022-12-08T15:24:32.537Z,112
2022-12-08T15:25:39.688Z,119
2022-12-08T15:26:46.741Z,113
2022-12-08T15:27:53.857Z,120
2022-12-08T15:29:00.997Z,112
2022-12-08T15:30:13.337Z,110
2022-12-08T15:31:21.423Z,121
2022-12-08T15:32:28.566Z,120
2022-12-08T15:33:37.652Z,123
2022-12-08T15:34:44.696Z,127
2022-12-08T15:35:51.928Z,122
2022-12-08T15:36:58.953Z,111
2022-12-08T15:38:06.229Z,116
2022-12-08T15:39:23.541Z,114
2022-12-08T15:40:35.621Z,115
2022-12-08T15:41:42.795Z,111
2022-12-08T15:42:49.889Z,108
2022-12-08T15:43:57.089Z,105
2022-12-08T15:45:05.245Z,113
2022-12-08T15:46:12.919Z,102
2022-12-08T15:47:20.033Z,105
2022-12-08T15:48:27.288Z,112
2022-12-08T15:49:34.446Z,106
2022-12-08T15:50:42.401Z,111
2022-12-08T15:51:49.449Z,111
2022-12-08T15:52:56.944Z,112
2022-12-08T15:54:05.093Z,109
2022-12-08T15:55:12.535Z,105
2022-12-08T15:56:27.198Z,108
2022-12-08T15:59:41.316Z,103
2022-12-08T16:00:53.277Z,109
2022-12-08T16:01:55.568Z,107
2022-12-08T16:03:42.498Z,107
2022-12-08T16:05:41.396Z,106
2022-12-08T16:07:12.743Z,104
2022-12-08T16:07:31.839Z,101
2022-12-08T16:08:49.267Z,108
2022-12-08T16:09:46.145Z,105
2022-12-08T16:11:34.407Z,103
2022-12-08T16:12:09.252Z,106
2022-12-08T16:15:39.034Z,108
2022-12-08T16:15:51.497Z,110